createdAt,value
2018-12-11T00:00:46.699Z,16.00
2018-12-11T00:01:46.690Z,15.70
2018-12-11T00:02:46.680Z,19.20
2018-12-11T00:03:46.677Z,16.80
2018-12-11T00:04:46.656Z,17.00
2018-12-11T00:05:46.647Z,14.30
2018-12-11T00:06:46.639Z,15.60
2018-12-11T00:07:46.624Z,14.60
2018-12-11T00:08:46.641Z,15.80
2018-12-11T00:09:46.602Z,15.00
2018-12-11T00:10:46.591Z,16.50
2018-12-11T00:11:46.585Z,18.10
2018-12-11T00:12:46.586Z,15.70
2018-12-11T00:13:46.572Z,17.90
2018-12-11T00:14:46.560Z,16.80
2018-12-11T00:15:46.543Z,17.90
2018-12-11T00:16:46.534Z,15.30
2018-12-11T00:17:46.521Z,13.30
2018-12-11T00:18:46.517Z,14.10
2018-12-11T00:19:46.510Z,18.00
2018-12-11T00:20:46.494Z,17.20
2018-12-11T00:21:46.481Z,17.30
2018-12-11T00:22:46.469Z,17.30
2018-12-11T00:23:46.460Z,16.30
2018-12-11T00:24:46.459Z,16.60
2018-12-11T00:25:46.435Z,15.50
2018-12-11T00:26:46.429Z,15.80
2018-12-11T00:27:46.412Z,14.80
2018-12-11T00:28:46.401Z,17.10
2018-12-11T00:29:46.401Z,18.80
2018-12-11T00:30:46.379Z,16.60
2018-12-11T00:31:46.370Z,19.10
2018-12-11T00:32:46.362Z,18.50
2018-12-11T00:33:46.347Z,16.30
2018-12-11T00:34:46.354Z,19.10
2018-12-11T00:35:46.335Z,19.10
2018-12-11T00:36:46.317Z,13.80
2018-12-11T00:37:46.305Z,17.40
2018-12-11T00:38:46.296Z,17.50
2018-12-11T00:39:46.298Z,15.40
2018-12-11T00:40:46.275Z,18.10
2018-12-11T00:41:46.270Z,19.60
2018-12-11T00:42:46.261Z,16.50
2018-12-11T00:43:46.244Z,13.90
2018-12-11T00:44:46.243Z,20.70
2018-12-11T00:45:46.223Z,19.30
2018-12-11T00:46:46.210Z,17.90
2018-12-11T00:47:46.204Z,15.70
2018-12-11T00:48:46.201Z,15.80
2018-12-11T00:49:46.196Z,18.20
2018-12-11T00:50:46.168Z,16.60
2018-12-11T00:51:46.158Z,16.50
2018-12-11T00:52:46.147Z,17.30
2018-12-11T00:53:46.146Z,18.20
2018-12-11T00:54:46.145Z,14.70
2018-12-11T00:55:46.113Z,17.70
2018-12-11T00:56:46.110Z,15.70
2018-12-11T00:57:46.091Z,16.00
2018-12-11T00:58:46.096Z,18.10
2018-12-11T00:59:46.086Z,12.60
2018-12-11T01:00:46.063Z,19.20
2018-12-11T01:01:46.049Z,17.60
2018-12-11T01:02:46.040Z,16.00
2018-12-11T01:03:46.029Z,20.10
2018-12-11T01:04:46.033Z,15.60
2018-12-11T01:05:46.013Z,17.40
2018-12-11T01:06:45.995Z,19.20
2018-12-11T01:07:45.986Z,18.30
2018-12-11T01:08:45.975Z,18.80
2018-12-11T01:09:45.983Z,18.20
2018-12-11T01:10:45.955Z,18.50
2018-12-11T01:11:45.997Z,20.30
2018-12-11T01:12:45.932Z,15.30
2018-12-11T01:13:45.921Z,19.00
2018-12-11T01:14:45.932Z,17.10
2018-12-11T01:15:45.900Z,20.10
2018-12-11T01:16:45.896Z,18.20
2018-12-11T01:17:45.881Z,16.80
2018-12-11T01:18:45.870Z,16.80
2018-12-11T01:19:45.868Z,19.00
2018-12-11T01:20:45.847Z,20.70
2018-12-11T01:21:45.838Z,15.80
2018-12-11T01:22:45.836Z,21.90
2018-12-11T01:23:45.818Z,20.50
2018-12-11T01:24:45.825Z,16.10
2018-12-11T01:25:45.794Z,19.70
2018-12-11T01:26:45.783Z,20.70
2018-12-11T01:27:45.773Z,19.70
2018-12-11T01:28:45.762Z,19.00
2018-12-11T01:29:45.774Z,19.30
2018-12-11T01:30:45.742Z,18.40
2018-12-11T01:31:45.731Z,16.20
2018-12-11T01:32:45.719Z,20.30
2018-12-11T01:33:45.711Z,19.40
2018-12-11T01:34:45.713Z,17.30
2018-12-11T01:35:45.689Z,19.60
2018-12-11T01:36:45.676Z,17.40
2018-12-11T01:37:45.667Z,19.70
2018-12-11T01:38:45.657Z,21.50
2018-12-11T01:39:45.658Z,19.50
2018-12-11T01:40:45.632Z,21.10
2018-12-11T01:41:45.625Z,17.10
2018-12-11T01:42:45.669Z,18.70
2018-12-11T01:43:45.605Z,20.50
2018-12-11T01:44:45.641Z,28.10
2018-12-11T01:45:45.589Z,18.40
2018-12-11T01:46:45.580Z,21.80
2018-12-11T01:47:45.559Z,20.30
2018-12-11T01:48:45.549Z,21.30
2018-12-11T01:49:45.540Z,24.90
2018-12-11T01:50:45.539Z,20.10
2018-12-11T01:51:45.537Z,22.70
2018-12-11T01:52:45.518Z,20.20
2018-12-11T01:53:45.496Z,19.30
2018-12-11T01:54:45.487Z,18.80
2018-12-11T01:55:45.503Z,18.80
2018-12-11T01:56:45.468Z,20.80
2018-12-11T01:57:45.454Z,19.40
2018-12-11T01:58:45.451Z,17.50
2018-12-11T01:59:45.433Z,18.10
2018-12-11T02:00:45.436Z,19.70
2018-12-11T02:01:45.411Z,20.70
2018-12-11T02:02:45.401Z,22.90
2018-12-11T02:03:45.392Z,20.90
2018-12-11T02:04:45.385Z,19.00
2018-12-11T02:05:45.380Z,19.50
2018-12-11T02:06:45.358Z,22.00
2018-12-11T02:07:45.349Z,21.10
2018-12-11T02:08:45.339Z,21.90
2018-12-11T02:09:45.330Z,27.70
2018-12-11T02:10:45.328Z,23.60
2018-12-11T02:11:45.306Z,23.10
2018-12-11T02:12:45.298Z,23.00
2018-12-11T02:13:45.284Z,21.80
2018-12-11T02:14:45.276Z,21.80
2018-12-11T02:15:45.275Z,21.50
2018-12-11T02:16:45.252Z,24.60
2018-12-11T02:17:45.245Z,20.10
2018-12-11T02:18:45.233Z,22.20
2018-12-11T02:19:45.220Z,21.60
2018-12-11T02:20:45.226Z,22.40
2018-12-11T02:21:45.201Z,23.40
2018-12-11T02:22:45.191Z,25.00
2018-12-11T02:23:45.181Z,22.80
2018-12-11T02:24:45.169Z,23.40
2018-12-11T02:25:45.172Z,20.80
2018-12-11T02:26:45.148Z,21.80
2018-12-11T02:27:45.136Z,22.20
2018-12-11T02:28:45.126Z,24.60
2018-12-11T02:29:45.118Z,20.60
2018-12-11T02:30:45.122Z,23.10
2018-12-11T02:31:45.095Z,24.00
2018-12-11T02:32:45.085Z,25.40
2018-12-11T02:33:45.101Z,25.30
2018-12-11T02:34:45.071Z,23.50
2018-12-11T02:35:45.075Z,23.70
2018-12-11T02:36:45.046Z,23.60
2018-12-11T02:37:45.044Z,20.30
2018-12-11T02:38:45.027Z,23.80
2018-12-11T02:39:45.015Z,23.10
2018-12-11T02:40:45.013Z,22.10
2018-12-11T02:41:44.992Z,24.80
2018-12-11T02:42:44.981Z,25.90
2018-12-11T02:43:44.976Z,26.80
2018-12-11T02:44:44.979Z,22.80
2018-12-11T02:45:44.960Z,25.20
2018-12-11T02:46:44.938Z,23.80
2018-12-11T02:47:44.932Z,25.10
2018-12-11T02:48:44.924Z,24.10
2018-12-11T02:49:44.909Z,24.40
2018-12-11T02:50:44.906Z,22.90
2018-12-11T02:51:44.887Z,23.30
2018-12-11T02:52:44.874Z,23.60
2018-12-11T02:53:44.865Z,25.80
2018-12-11T02:54:44.854Z,25.40
2018-12-11T02:55:44.856Z,25.00
2018-12-11T02:56:44.835Z,22.40
2018-12-11T02:57:44.821Z,23.40
2018-12-11T02:58:44.813Z,23.40
2018-12-11T02:59:44.800Z,22.80
2018-12-11T03:00:44.806Z,25.60
2018-12-11T03:01:44.785Z,24.30
2018-12-11T03:02:44.768Z,26.50
2018-12-11T03:03:44.760Z,25.40
2018-12-11T03:04:44.752Z,21.80
2018-12-11T03:05:44.752Z,21.50
2018-12-11T03:06:44.728Z,24.80
2018-12-11T03:07:44.719Z,25.30
2018-12-11T03:08:44.705Z,21.40
2018-12-11T03:09:44.696Z,27.00
2018-12-11T03:10:44.696Z,23.70
2018-12-11T03:11:44.674Z,24.40
2018-12-11T03:12:44.672Z,24.70
2018-12-11T03:13:44.653Z,24.30
2018-12-11T03:14:44.646Z,23.00
2018-12-11T03:15:44.645Z,24.70
2018-12-11T03:16:44.624Z,23.30
2018-12-11T03:17:44.621Z,23.60
2018-12-11T03:18:44.605Z,23.00
2018-12-11T03:19:44.591Z,20.80
2018-12-11T03:20:44.619Z,21.10
2018-12-11T03:21:44.571Z,21.20
2018-12-11T03:22:44.562Z,23.30
2018-12-11T03:23:44.550Z,24.30
2018-12-11T03:24:44.537Z,20.50
2018-12-11T03:25:44.528Z,21.80
2018-12-11T03:26:44.528Z,26.20
2018-12-11T03:27:44.507Z,22.20
2018-12-11T03:28:44.506Z,24.10
2018-12-11T03:29:44.485Z,26.80
2018-12-11T03:30:44.491Z,24.40
2018-12-11T03:31:44.476Z,23.90
2018-12-11T03:32:44.455Z,23.10
2018-12-11T03:33:44.441Z,26.30
2018-12-11T03:34:44.433Z,23.10
2018-12-11T03:35:44.424Z,22.70
2018-12-11T03:36:44.426Z,20.50
2018-12-11T03:37:44.405Z,22.00
2018-12-11T03:38:44.398Z,21.60
2018-12-11T03:39:44.380Z,23.20
2018-12-11T03:40:44.367Z,19.30
2018-12-11T03:41:44.369Z,21.90
2018-12-11T03:42:44.349Z,24.40
2018-12-11T03:43:44.338Z,23.50
2018-12-11T03:44:44.327Z,22.20
2018-12-11T03:45:44.316Z,22.10
2018-12-11T03:46:44.324Z,21.10
2018-12-11T03:47:44.299Z,21.30
2018-12-11T03:48:44.289Z,21.20
2018-12-11T03:49:44.278Z,19.60
2018-12-11T03:50:44.261Z,20.00
2018-12-11T03:51:44.266Z,23.40
2018-12-11T03:52:44.248Z,20.50
2018-12-11T03:53:44.238Z,23.90
2018-12-11T03:54:44.231Z,22.70
2018-12-11T03:55:44.210Z,23.40
2018-12-11T03:56:44.212Z,17.80
2018-12-11T03:57:44.192Z,21.90
2018-12-11T03:58:44.179Z,23.40
2018-12-11T03:59:44.178Z,22.90
2018-12-11T04:00:44.157Z,21.70
2018-12-11T04:01:44.158Z,24.80
2018-12-11T04:02:44.137Z,23.00
2018-12-11T04:03:44.126Z,22.00
2018-12-11T04:04:44.117Z,22.50
2018-12-11T04:05:44.106Z,18.90
2018-12-11T04:06:44.103Z,17.20
2018-12-11T04:07:44.086Z,22.50
2018-12-11T04:08:44.072Z,21.60
2018-12-11T04:09:44.112Z,21.80
2018-12-11T04:10:44.050Z,19.50
2018-12-11T04:11:44.059Z,19.80
2018-12-11T04:12:44.029Z,19.50
2018-12-11T04:13:44.019Z,20.50
2018-12-11T04:14:44.009Z,20.90
2018-12-11T04:15:43.998Z,20.70
2018-12-11T04:16:44.000Z,19.20
2018-12-11T04:17:43.977Z,20.20
2018-12-11T04:18:43.966Z,22.90
2018-12-11T04:19:43.956Z,19.00
2018-12-11T04:20:43.946Z,23.30
2018-12-11T04:21:43.949Z,19.90
2018-12-11T04:22:43.924Z,20.70
2018-12-11T04:23:43.916Z,22.40
2018-12-11T04:24:43.903Z,24.00
2018-12-11T04:25:43.894Z,23.40
2018-12-11T04:26:43.894Z,22.90
2018-12-11T04:27:43.885Z,19.00
2018-12-11T04:28:43.862Z,20.40
2018-12-11T04:29:43.851Z,20.90
2018-12-11T04:30:43.841Z,23.90
2018-12-11T04:31:43.844Z,22.40
2018-12-11T04:32:43.824Z,22.30
2018-12-11T04:33:43.811Z,26.80
2018-12-11T04:34:43.796Z,22.70
2018-12-11T04:35:44.794Z,19.60
2018-12-11T04:36:43.790Z,17.10
2018-12-11T04:37:43.767Z,19.70
2018-12-11T04:38:43.758Z,22.60
2018-12-11T04:39:43.747Z,21.40
2018-12-11T04:40:43.733Z,23.40
2018-12-11T04:41:43.734Z,20.00
2018-12-11T04:42:43.714Z,20.70
2018-12-11T04:43:43.703Z,22.90
2018-12-11T04:44:43.692Z,20.40
2018-12-11T04:45:43.680Z,20.20
2018-12-11T04:46:43.716Z,20.50
2018-12-11T04:47:43.664Z,23.00
2018-12-11T04:48:43.648Z,19.20
2018-12-11T04:49:43.640Z,21.10
2018-12-11T04:50:43.627Z,23.20
2018-12-11T04:51:43.618Z,18.40
2018-12-11T04:52:43.622Z,23.30
2018-12-11T04:53:43.605Z,18.00
2018-12-11T04:54:43.587Z,24.90
2018-12-11T04:55:43.575Z,20.40
2018-12-11T04:56:43.594Z,22.30
2018-12-11T04:57:43.574Z,19.30
2018-12-11T04:58:43.542Z,19.40
2018-12-11T04:59:43.533Z,21.70
2018-12-11T05:00:43.542Z,23.30
2018-12-11T05:01:43.510Z,20.70
2018-12-11T05:02:43.510Z,21.00
2018-12-11T05:03:43.494Z,20.30
2018-12-11T05:04:43.479Z,20.10
2018-12-11T05:05:43.467Z,24.10
2018-12-11T05:06:43.458Z,18.90
2018-12-11T05:07:43.463Z,21.50
2018-12-11T05:08:43.449Z,20.10
2018-12-11T05:09:43.426Z,23.80
2018-12-11T05:10:43.417Z,21.00
2018-12-11T05:11:43.404Z,19.00
2018-12-11T05:12:43.414Z,21.90
2018-12-11T05:13:43.383Z,20.30
2018-12-11T05:14:43.376Z,19.60
2018-12-11T05:15:43.366Z,16.60
2018-12-11T05:16:43.353Z,22.60
2018-12-11T05:17:43.359Z,21.20
2018-12-11T05:18:43.330Z,17.60
2018-12-11T05:19:43.324Z,19.00
2018-12-11T05:20:43.312Z,21.90
2018-12-11T05:21:43.301Z,20.90
2018-12-11T05:22:43.302Z,19.50
2018-12-11T05:23:43.284Z,19.60
2018-12-11T05:24:43.271Z,20.10
2018-12-11T05:25:43.258Z,16.60
2018-12-11T05:26:43.246Z,18.70
2018-12-11T05:27:43.251Z,18.30
2018-12-11T05:28:43.230Z,20.40
2018-12-11T05:29:43.213Z,21.10
2018-12-11T05:30:43.204Z,16.10
2018-12-11T05:31:43.196Z,16.00
2018-12-11T05:32:43.216Z,17.00
2018-12-11T05:33:43.172Z,16.00
2018-12-11T05:34:43.166Z,16.30
2018-12-11T05:35:43.152Z,20.20
2018-12-11T05:36:43.141Z,15.60
2018-12-11T05:37:43.130Z,13.70
2018-12-11T05:38:43.136Z,15.60
2018-12-11T05:39:43.108Z,17.20
2018-12-11T05:40:43.111Z,17.10
2018-12-11T05:41:43.093Z,17.70
2018-12-11T05:42:43.077Z,18.10
2018-12-11T05:43:43.079Z,16.60
2018-12-11T05:44:43.057Z,15.60
2018-12-11T05:45:43.044Z,15.10
2018-12-11T05:46:43.031Z,17.30
2018-12-11T05:47:43.026Z,18.00
2018-12-11T05:48:43.024Z,17.60
2018-12-11T05:49:43.005Z,16.90
2018-12-11T05:50:42.994Z,18.70
2018-12-11T05:51:42.980Z,17.80
2018-12-11T05:52:42.969Z,19.50
2018-12-11T05:53:42.984Z,15.60
2018-12-11T05:54:42.949Z,18.50
2018-12-11T05:55:42.941Z,15.90
2018-12-11T05:56:42.936Z,19.20
2018-12-11T05:57:42.918Z,16.60
2018-12-11T05:58:42.928Z,17.90
2018-12-11T05:59:42.897Z,18.10
2018-12-11T06:00:42.889Z,17.00
2018-12-11T06:01:42.876Z,14.80
2018-12-11T06:02:42.864Z,17.50
2018-12-11T06:03:42.866Z,19.60
2018-12-11T06:04:42.845Z,18.40
2018-12-11T06:05:42.833Z,16.90
2018-12-11T06:06:42.826Z,19.90
2018-12-11T06:07:42.814Z,16.50
2018-12-11T06:08:42.814Z,19.30
2018-12-11T06:09:42.787Z,19.80
2018-12-11T06:10:42.778Z,20.10
2018-12-11T06:11:42.768Z,20.10
2018-12-11T06:12:42.759Z,17.80
2018-12-11T06:13:42.764Z,17.50
2018-12-11T06:14:42.738Z,23.50
2018-12-11T06:15:42.727Z,19.20
2018-12-11T06:16:42.736Z,15.30
2018-12-11T06:17:42.705Z,16.20
2018-12-11T06:18:42.714Z,19.70
2018-12-11T06:19:42.685Z,16.90
2018-12-11T06:20:42.677Z,17.00
2018-12-11T06:21:42.665Z,16.80
2018-12-11T06:22:42.652Z,13.60
2018-12-11T06:23:42.685Z,17.40
2018-12-11T06:24:42.633Z,16.40
2018-12-11T06:25:42.620Z,19.70
2018-12-11T06:26:42.608Z,13.90
2018-12-11T06:27:42.600Z,19.10
2018-12-11T06:28:42.588Z,16.70
2018-12-11T06:29:43.077Z,17.60
2018-12-11T06:30:42.568Z,18.10
2018-12-11T06:31:42.555Z,19.20
2018-12-11T06:32:42.546Z,16.30
2018-12-11T06:33:42.556Z,16.10
2018-12-11T06:34:42.534Z,13.20
2018-12-11T06:35:42.517Z,12.80
2018-12-11T06:36:42.508Z,13.60
2018-12-11T06:37:42.492Z,12.60
2018-12-11T06:38:42.483Z,14.10
2018-12-11T06:39:42.482Z,9.90
2018-12-11T06:40:42.470Z,12.50
2018-12-11T06:41:42.451Z,13.10
2018-12-11T06:42:42.440Z,13.00
2018-12-11T06:43:42.430Z,13.10
2018-12-11T06:44:42.435Z,13.30
2018-12-11T06:45:42.417Z,11.90
2018-12-11T06:46:42.400Z,10.60
2018-12-11T06:47:42.391Z,10.70
2018-12-11T06:48:42.376Z,13.30
2018-12-11T06:49:42.381Z,13.90
2018-12-11T06:50:42.355Z,12.60
2018-12-11T06:51:42.368Z,12.50
2018-12-11T06:52:42.336Z,11.10
2018-12-11T06:53:42.322Z,12.40
2018-12-11T06:54:42.329Z,10.10
2018-12-11T06:55:42.302Z,12.30
2018-12-11T06:56:42.291Z,12.50
2018-12-11T06:57:42.283Z,15.30
2018-12-11T06:58:42.277Z,13.40
2018-12-11T06:59:42.279Z,18.60
2018-12-11T07:00:42.255Z,18.20
2018-12-11T07:01:42.238Z,14.80
2018-12-11T07:02:42.226Z,15.00
2018-12-11T07:03:42.216Z,15.20
2018-12-11T07:04:42.242Z,13.80
2018-12-11T07:05:42.200Z,12.40
2018-12-11T07:06:42.182Z,17.60
2018-12-11T07:07:42.174Z,11.80
2018-12-11T07:08:42.165Z,12.60
2018-12-11T07:09:42.151Z,13.70
2018-12-11T07:10:42.173Z,14.40
2018-12-11T07:11:42.136Z,10.90
2018-12-11T07:12:42.119Z,13.50
2018-12-11T07:13:42.109Z,13.20
2018-12-11T07:14:42.101Z,13.30
2018-12-11T07:15:42.108Z,10.00
2018-12-11T07:16:42.080Z,11.10
2018-12-11T07:17:42.068Z,10.70
2018-12-11T07:18:42.059Z,13.60
2018-12-11T07:19:42.049Z,10.30
2018-12-11T07:20:42.047Z,10.40
2018-12-11T07:21:42.026Z,10.70
2018-12-11T07:22:42.024Z,12.00
2018-12-11T07:23:42.004Z,12.50
2018-12-11T07:24:41.996Z,10.70
2018-12-11T07:25:41.994Z,11.90
2018-12-11T07:26:41.972Z,9.80
2018-12-11T07:27:41.961Z,10.50
2018-12-11T07:28:41.951Z,9.80
2018-12-11T07:29:41.941Z,10.40
2018-12-11T07:30:41.946Z,9.80
2018-12-11T07:31:41.918Z,10.10
2018-12-11T07:32:41.909Z,9.40
2018-12-11T07:33:43.016Z,8.90
2018-12-11T07:34:41.891Z,9.00
2018-12-11T07:35:41.888Z,8.80
2018-12-11T07:36:41.905Z,10.90
2018-12-11T07:37:41.857Z,8.10
2018-12-11T07:38:41.843Z,9.80
2018-12-11T07:39:41.833Z,5.00
2018-12-11T07:40:41.825Z,8.50
2018-12-11T07:41:41.824Z,7.40
2018-12-11T07:42:41.804Z,8.30
2018-12-11T07:43:41.792Z,9.70
2018-12-11T07:44:41.786Z,6.00
2018-12-11T07:45:41.791Z,7.90
2018-12-11T07:46:41.803Z,6.30
2018-12-11T07:47:41.759Z,5.30
2018-12-11T07:48:41.745Z,5.80
2018-12-11T07:49:41.739Z,7.20
2018-12-11T07:50:41.724Z,5.40
2018-12-11T07:51:41.751Z,4.60
2018-12-11T07:52:41.700Z,5.80
2018-12-11T07:53:41.692Z,6.20
2018-12-11T07:54:41.682Z,6.40
2018-12-11T07:55:41.667Z,4.60
2018-12-11T07:56:41.672Z,4.60
2018-12-11T07:57:41.645Z,8.10
2018-12-11T07:58:41.659Z,7.90
2018-12-11T07:59:41.628Z,8.80
2018-12-11T08:00:41.613Z,8.00
2018-12-11T08:01:42.080Z,8.80
2018-12-11T08:02:41.591Z,7.60
2018-12-11T08:03:41.581Z,7.10
2018-12-11T08:04:41.591Z,7.10
2018-12-11T08:05:41.565Z,6.50
2018-12-11T08:06:41.563Z,5.20
2018-12-11T08:07:41.538Z,8.30
2018-12-11T08:08:41.529Z,6.10
2018-12-11T08:09:41.519Z,5.10
2018-12-11T08:10:41.513Z,7.10
2018-12-11T08:11:41.510Z,6.10
2018-12-11T08:12:41.489Z,6.30
2018-12-11T08:13:41.475Z,6.20
2018-12-11T08:14:41.464Z,5.10
2018-12-11T08:15:41.455Z,5.10
2018-12-11T08:16:41.482Z,6.40
2018-12-11T08:17:41.432Z,5.40
2018-12-11T08:18:41.423Z,5.40
2018-12-11T08:19:41.413Z,7.10
2018-12-11T08:20:41.408Z,7.00
2018-12-11T08:21:41.403Z,6.00
2018-12-11T08:22:41.394Z,8.00
2018-12-11T08:23:41.372Z,8.20
2018-12-11T08:24:41.711Z,5.90
2018-12-11T08:25:41.350Z,5.90
2018-12-11T08:26:41.339Z,7.70
2018-12-11T08:27:41.340Z,8.20
2018-12-11T08:28:41.317Z,7.10
2018-12-11T08:29:41.309Z,7.50
2018-12-11T08:30:41.299Z,5.60
2018-12-11T08:31:41.291Z,5.50
2018-12-11T08:32:41.287Z,8.90
2018-12-11T08:33:41.268Z,5.70
2018-12-11T08:34:41.254Z,6.10
2018-12-11T08:35:41.245Z,5.60
2018-12-11T08:36:41.234Z,7.60
2018-12-11T08:37:41.241Z,5.60
2018-12-11T08:38:41.212Z,4.10
2018-12-11T08:39:41.203Z,5.30
2018-12-11T08:40:41.192Z,5.90
2018-12-11T08:41:41.181Z,4.90
2018-12-11T08:42:41.184Z,7.20
2018-12-11T08:43:41.161Z,6.60
2018-12-11T08:44:41.151Z,5.60
2018-12-11T08:45:41.164Z,6.80
2018-12-11T08:46:41.129Z,5.50
2018-12-11T08:47:41.130Z,5.30
2018-12-11T08:48:41.112Z,6.70
2018-12-11T08:49:41.098Z,5.70
2018-12-11T08:50:41.087Z,6.80
2018-12-11T08:51:41.075Z,6.10
2018-12-11T08:52:41.079Z,5.40
2018-12-11T08:53:41.062Z,5.70
2018-12-11T08:54:41.054Z,8.30
2018-12-11T08:55:41.037Z,7.70
2018-12-11T08:56:41.030Z,9.30
2018-12-11T08:57:41.025Z,9.40
2018-12-11T08:58:41.005Z,10.40
2018-12-11T08:59:40.994Z,9.10
2018-12-11T09:00:40.995Z,8.00
2018-12-11T09:01:40.990Z,4.50
2018-12-11T09:02:41.013Z,6.20
2018-12-11T09:03:40.954Z,7.80
2018-12-11T09:04:41.445Z,6.00
2018-12-11T09:05:40.933Z,5.70
2018-12-11T09:06:40.921Z,5.40
2018-12-11T09:07:40.908Z,6.80
2018-12-11T09:08:40.909Z,4.10
2018-12-11T09:09:40.886Z,5.60
2018-12-11T09:10:40.876Z,5.30
2018-12-11T09:11:40.867Z,8.00
2018-12-11T09:12:40.858Z,7.70
2018-12-11T09:13:40.856Z,6.00
2018-12-11T09:14:40.832Z,5.40
2018-12-11T09:15:40.825Z,8.20
2018-12-11T09:16:40.820Z,5.40
2018-12-11T09:17:40.804Z,4.80
2018-12-11T09:18:40.829Z,5.30
2018-12-11T09:19:40.783Z,7.70
2018-12-11T09:20:40.787Z,7.20
2018-12-11T09:21:40.760Z,5.40
2018-12-11T09:22:40.750Z,4.90
2018-12-11T09:23:40.752Z,4.90
2018-12-11T09:24:40.728Z,6.60
2018-12-11T09:25:40.718Z,6.40
2018-12-11T09:26:40.707Z,5.50
2018-12-11T09:27:40.699Z,8.20
2018-12-11T09:28:40.700Z,6.20
2018-12-11T09:29:40.675Z,8.10
2018-12-11T09:30:40.664Z,8.10
2018-12-11T09:31:40.662Z,7.90
2018-12-11T09:32:40.644Z,6.40
2018-12-11T09:33:40.665Z,6.50
2018-12-11T09:34:40.621Z,5.10
2018-12-11T09:35:40.617Z,5.40
2018-12-11T09:36:40.604Z,3.90
2018-12-11T09:37:40.591Z,5.70
2018-12-11T09:38:40.584Z,5.10
2018-12-11T09:39:40.683Z,4.90
2018-12-11T09:40:40.560Z,5.00
2018-12-11T09:41:40.552Z,6.10
2018-12-11T09:42:40.538Z,5.50
2018-12-11T09:43:40.529Z,6.50
2018-12-11T09:44:40.533Z,4.00
2018-12-11T09:45:40.511Z,6.10
2018-12-11T09:46:40.497Z,3.70
2018-12-11T09:47:40.484Z,5.30
2018-12-11T09:48:40.474Z,5.10
2018-12-11T09:49:40.476Z,4.50
2018-12-11T09:50:40.495Z,6.10
2018-12-11T09:51:40.442Z,3.30
2018-12-11T09:52:40.430Z,4.70
2018-12-11T09:53:40.423Z,5.10
2018-12-11T09:54:40.430Z,4.20
2018-12-11T09:55:40.409Z,5.50
2018-12-11T09:56:40.395Z,4.30
2018-12-11T09:57:40.380Z,4.60
2018-12-11T09:58:40.375Z,4.60
2018-12-11T09:59:40.370Z,4.10
2018-12-11T10:00:40.460Z,2.70
2018-12-11T10:01:40.345Z,3.80
2018-12-11T10:02:40.325Z,4.30
2018-12-11T10:03:40.365Z,3.20
2018-12-11T10:04:40.315Z,2.90
2018-12-11T10:05:40.294Z,4.20
2018-12-11T10:06:40.289Z,3.50
2018-12-11T10:07:40.305Z,5.20
2018-12-11T10:08:40.263Z,3.80
2018-12-11T10:09:40.265Z,3.20
2018-12-11T10:10:40.245Z,4.00
2018-12-11T10:11:40.255Z,3.90
2018-12-11T10:12:40.220Z,2.60
2018-12-11T10:13:40.212Z,5.10
2018-12-11T10:14:40.212Z,3.60
2018-12-11T10:15:40.188Z,4.40
2018-12-11T10:16:40.180Z,5.30
2018-12-11T10:17:40.243Z,3.80
2018-12-11T10:18:40.171Z,3.80
2018-12-11T10:19:40.180Z,3.80
2018-12-11T10:20:40.167Z,4.90
2018-12-11T10:21:40.128Z,5.10
2018-12-11T10:22:40.121Z,4.90
2018-12-11T10:23:40.115Z,4.20
2018-12-11T10:24:40.099Z,7.50
2018-12-11T10:25:40.100Z,6.80
2018-12-11T10:26:40.143Z,4.40
2018-12-11T10:27:40.065Z,3.90
2018-12-11T10:28:40.058Z,3.30
2018-12-11T10:29:40.044Z,2.10
2018-12-11T10:30:40.050Z,3.00
2018-12-11T10:31:40.018Z,2.20
2018-12-11T10:32:40.010Z,2.80
2018-12-11T10:33:40.001Z,2.80
2018-12-11T10:34:39.995Z,3.00
2018-12-11T10:35:39.988Z,3.90
2018-12-11T10:36:39.972Z,6.60
2018-12-11T10:37:39.955Z,3.80
2018-12-11T10:38:39.948Z,3.80
2018-12-11T10:39:39.940Z,3.90
2018-12-11T10:40:39.939Z,3.50
2018-12-11T10:41:39.919Z,4.10
2018-12-11T10:42:39.907Z,3.00
2018-12-11T10:43:39.895Z,5.00
2018-12-11T10:44:39.882Z,4.90
2018-12-11T10:45:40.088Z,4.80
2018-12-11T10:46:39.870Z,3.20
2018-12-11T10:47:39.859Z,5.30
2018-12-11T10:48:39.839Z,2.90
2018-12-11T10:49:39.839Z,2.60
2018-12-11T10:50:39.832Z,3.50
2018-12-11T10:51:39.847Z,3.20
2018-12-11T10:52:39.798Z,3.20
2018-12-11T10:53:39.792Z,4.90
2018-12-11T10:54:39.783Z,4.30
2018-12-11T10:55:39.779Z,4.20
2018-12-11T10:56:39.782Z,3.50
2018-12-11T10:57:39.747Z,3.60
2018-12-11T10:58:39.737Z,4.00
2018-12-11T10:59:39.730Z,3.20
2018-12-11T11:00:39.730Z,5.30
2018-12-11T11:01:39.709Z,3.60
2018-12-11T11:02:39.693Z,5.80
2018-12-11T11:03:39.683Z,3.30
2018-12-11T11:04:39.671Z,3.10
2018-12-11T11:05:39.685Z,4.60
2018-12-11T11:06:39.653Z,4.60
2018-12-11T11:07:39.651Z,2.80
2018-12-11T11:08:39.635Z,3.70
2018-12-11T11:09:39.619Z,2.60
2018-12-11T11:10:39.650Z,4.10
2018-12-11T11:11:39.597Z,3.30
2018-12-11T11:12:39.591Z,2.60
2018-12-11T11:13:39.590Z,4.60
2018-12-11T11:14:39.603Z,3.70
2018-12-11T11:15:39.559Z,3.40
2018-12-11T11:16:39.609Z,2.70
2018-12-11T11:17:39.534Z,4.80
2018-12-11T11:18:39.528Z,3.50
2018-12-11T11:19:39.518Z,2.90
2018-12-11T11:20:39.509Z,3.00
2018-12-11T11:21:39.505Z,2.80
2018-12-11T11:22:39.485Z,4.20
2018-12-11T11:23:39.473Z,3.50
2018-12-11T11:24:39.463Z,5.40
2018-12-11T11:25:39.452Z,2.60
2018-12-11T11:26:39.471Z,3.30
2018-12-11T11:27:39.431Z,2.80
2018-12-11T11:28:39.440Z,3.70
2018-12-11T11:29:39.418Z,2.60
2018-12-11T11:30:39.398Z,5.10
2018-12-11T11:31:39.403Z,4.30
2018-12-11T11:32:39.378Z,2.60
2018-12-11T11:33:39.372Z,2.80
2018-12-11T11:34:39.359Z,2.80
2018-12-11T11:35:39.354Z,2.50
2018-12-11T11:36:39.371Z,3.90
2018-12-11T11:37:39.326Z,4.00
2018-12-11T11:38:39.316Z,3.40
2018-12-11T11:39:39.306Z,3.90
2018-12-11T11:40:39.296Z,4.10
2018-12-11T11:41:39.297Z,3.10
2018-12-11T11:42:39.273Z,4.30
2018-12-11T11:43:39.265Z,3.20
2018-12-11T11:44:39.261Z,4.60
2018-12-11T11:45:39.245Z,4.50
2018-12-11T11:46:39.269Z,3.10
2018-12-11T11:47:39.236Z,2.30
2018-12-11T11:48:39.211Z,3.70
2018-12-11T11:49:39.199Z,3.80
2018-12-11T11:50:39.189Z,4.00
2018-12-11T11:51:39.180Z,3.90
2018-12-11T11:52:39.178Z,4.10
2018-12-11T11:53:39.155Z,3.20
2018-12-11T11:54:39.148Z,3.40
2018-12-11T11:55:39.141Z,3.80
2018-12-11T11:56:39.125Z,3.80
2018-12-11T11:57:39.126Z,4.50
2018-12-11T11:58:39.103Z,5.60
2018-12-11T11:59:39.101Z,3.50
2018-12-11T12:00:39.084Z,4.20
2018-12-11T12:01:39.080Z,2.70
2018-12-11T12:02:39.078Z,3.00
2018-12-11T12:03:39.052Z,3.00
2018-12-11T12:04:39.072Z,2.90
2018-12-11T12:05:39.036Z,5.20
2018-12-11T12:06:39.023Z,2.80
2018-12-11T12:07:39.027Z,4.40
2018-12-11T12:08:38.997Z,5.70
2018-12-11T12:09:38.990Z,4.00
2018-12-11T12:10:38.980Z,3.90
2018-12-11T12:11:38.970Z,5.30
2018-12-11T12:12:38.970Z,3.20
2018-12-11T12:13:38.956Z,4.10
2018-12-11T12:14:38.935Z,5.50
2018-12-11T12:15:38.944Z,5.00
2018-12-11T12:16:38.915Z,4.50
2018-12-11T12:17:38.914Z,4.60
2018-12-11T12:18:38.894Z,3.70
2018-12-11T12:19:38.892Z,4.00
2018-12-11T12:20:38.878Z,4.10
2018-12-11T12:21:38.873Z,4.20
2018-12-11T12:22:38.866Z,3.00
2018-12-11T12:23:38.862Z,3.40
2018-12-11T12:24:38.831Z,5.10
2018-12-11T12:25:38.826Z,7.00
2018-12-11T12:26:38.811Z,4.10
2018-12-11T12:27:38.814Z,3.50
2018-12-11T12:28:38.789Z,3.40
2018-12-11T12:29:38.781Z,3.10
2018-12-11T12:30:38.777Z,3.40
2018-12-11T12:31:38.759Z,3.30
2018-12-11T12:32:38.765Z,5.40
2018-12-11T12:33:38.743Z,4.70
2018-12-11T12:34:38.784Z,4.80
2018-12-11T12:35:38.747Z,3.90
2018-12-11T12:36:38.705Z,4.80
2018-12-11T12:37:38.704Z,4.70
2018-12-11T12:38:38.682Z,5.00
2018-12-11T12:39:38.677Z,4.20
2018-12-11T12:40:38.659Z,6.00
2018-12-11T12:41:38.658Z,4.30
2018-12-11T12:42:38.674Z,6.10
2018-12-11T12:43:38.632Z,10.30
2018-12-11T12:44:38.655Z,6.90
2018-12-11T12:45:38.612Z,7.50
2018-12-11T12:46:38.639Z,6.20
2018-12-11T12:47:38.585Z,5.10
2018-12-11T12:48:38.591Z,5.60
2018-12-11T12:49:38.633Z,6.60
2018-12-11T12:50:38.557Z,6.50
2018-12-11T12:51:38.546Z,6.60
2018-12-11T12:52:38.532Z,5.80
2018-12-11T12:53:38.538Z,6.70
2018-12-11T12:54:38.617Z,6.20
2018-12-11T12:55:38.508Z,5.90
2018-12-11T12:56:38.492Z,6.70
2018-12-11T12:57:38.483Z,8.70
2018-12-11T12:58:38.504Z,7.50
2018-12-11T12:59:38.564Z,8.90
2018-12-11T13:00:38.449Z,8.80
2018-12-11T13:01:38.441Z,9.20
2018-12-11T13:02:38.426Z,8.00
2018-12-11T13:03:38.431Z,8.30